createdAt,value
2019-04-11T00:00:26.033Z,34.92
2019-04-11T00:02:55.259Z,32.75
2019-04-11T00:05:23.939Z,32.05
2019-04-11T00:07:52.411Z,32.25
2019-04-11T00:10:22.767Z,33.58
2019-04-11T00:12:51.239Z,31.55
2019-04-11T00:15:20.320Z,30.80
2019-04-11T00:17:48.792Z,31.68
2019-04-11T00:20:18.058Z,30.70
2019-04-11T00:22:47.825Z,32.42
2019-04-11T00:25:17.712Z,32.48
2019-04-11T00:27:46.169Z,31.02
2019-04-11T00:30:15.709Z,30.72
2019-04-11T00:32:44.184Z,32.35
2019-04-11T00:35:12.683Z,29.00
2019-04-11T00:37:41.256Z,29.20
2019-04-11T00:40:10.992Z,28.52
2019-04-11T00:42:39.526Z,29.50
2019-04-11T00:45:08.187Z,27.37
2019-04-11T00:47:38.140Z,26.87
2019-04-11T00:50:07.522Z,28.20
2019-04-11T00:52:37.101Z,26.87
2019-04-11T00:55:07.077Z,26.57
2019-04-11T00:57:35.681Z,25.00
2019-04-11T01:00:06.945Z,25.12
2019-04-11T01:02:35.815Z,21.10
2019-04-11T01:05:06.113Z,23.22
2019-04-11T01:07:35.308Z,25.60
2019-04-11T01:10:06.640Z,23.10
2019-04-11T01:12:35.201Z,23.73
2019-04-11T01:15:07.042Z,20.55
2019-04-11T01:17:35.560Z,22.45
2019-04-11T01:20:07.076Z,20.40
2019-04-11T01:22:35.478Z,17.27
2019-04-11T01:25:06.338Z,15.72
2019-04-11T01:27:36.153Z,18.98
2019-04-11T01:30:08.720Z,15.72
2019-04-11T01:32:38.144Z,17.57
2019-04-11T01:35:07.030Z,15.98
2019-04-11T01:37:36.221Z,14.65
2019-04-11T01:40:05.757Z,14.63
2019-04-11T01:42:35.430Z,13.53
2019-04-11T01:45:05.339Z,13.03
2019-04-11T01:47:42.689Z,12.90
2019-04-11T01:50:12.550Z,13.78
2019-04-11T01:52:41.072Z,14.58
2019-04-11T01:55:10.304Z,13.85
2019-04-11T01:57:38.855Z,13.85
2019-04-11T02:00:10.848Z,13.88
2019-04-11T02:02:40.992Z,13.55
2019-04-11T02:05:14.533Z,13.38
2019-04-11T02:07:42.988Z,11.15
2019-04-11T02:10:12.675Z,13.35
2019-04-11T02:12:41.566Z,13.68
2019-04-11T02:15:10.354Z,13.65
2019-04-11T02:17:41.584Z,12.30
2019-04-11T02:20:10.071Z,12.70
2019-04-11T02:22:40.400Z,13.70
2019-04-11T02:25:28.235Z,12.13
2019-04-11T02:27:58.115Z,13.40
2019-04-11T02:30:27.912Z,14.63
2019-04-11T02:32:58.315Z,14.35
2019-04-11T02:35:26.976Z,12.98
2019-04-11T02:37:56.881Z,13.03
2019-04-11T02:40:27.509Z,13.53
2019-04-11T02:42:57.291Z,14.60
2019-04-11T02:45:40.870Z,14.00
2019-04-11T02:47:57.129Z,13.35
2019-04-11T02:50:26.612Z,14.50
2019-04-11T02:52:56.717Z,12.30
2019-04-11T02:55:27.561Z,12.95
2019-04-11T02:57:56.896Z,14.73
2019-04-11T03:00:28.697Z,13.80
2019-04-11T03:02:57.032Z,14.28
2019-04-11T03:05:26.853Z,12.75
2019-04-11T03:07:56.453Z,12.80
2019-04-11T03:10:27.121Z,13.10
2019-04-11T03:12:56.856Z,13.35
2019-04-11T03:15:41.531Z,13.22
2019-04-11T03:18:01.818Z,13.45
2019-04-11T03:20:32.562Z,13.75
2019-04-11T03:23:00.387Z,14.20
2019-04-11T03:25:28.350Z,14.03
2019-04-11T03:27:58.849Z,15.18
2019-04-11T03:30:42.396Z,13.38
2019-04-11T03:33:54.454Z,13.08
2019-04-11T03:36:24.704Z,13.80
2019-04-11T03:38:27.679Z,14.43
2019-04-11T03:40:48.220Z,13.05
2019-04-11T03:43:12.007Z,12.73
2019-04-11T03:45:51.316Z,15.80
2019-04-11T03:48:15.224Z,12.75
2019-04-11T03:50:32.800Z,14.50
2019-04-11T03:53:03.838Z,12.55
2019-04-11T03:55:32.668Z,13.60
2019-04-11T03:58:01.647Z,14.45
2019-04-11T04:00:36.055Z,12.85
2019-04-11T04:03:01.545Z,13.85
2019-04-11T04:05:34.640Z,13.83
2019-04-11T04:08:03.861Z,13.10
2019-04-11T04:10:34.162Z,15.03
2019-04-11T04:13:05.464Z,13.65
2019-04-11T04:15:53.515Z,14.25
2019-04-11T04:21:17.307Z,15.28
2019-04-11T04:23:46.418Z,15.03
2019-04-11T04:26:16.789Z,14.30
2019-04-11T04:28:45.323Z,14.10
2019-04-11T04:31:16.328Z,16.07
2019-04-11T04:33:45.570Z,15.18
2019-04-11T04:36:17.787Z,14.70
2019-04-11T04:38:46.580Z,16.75
2019-04-11T04:41:26.839Z,14.07
2019-04-11T04:43:48.087Z,14.87
2019-04-11T04:46:31.376Z,15.25
2019-04-11T04:48:49.164Z,15.25
2019-04-11T04:51:18.321Z,13.20
2019-04-11T04:53:48.129Z,15.25
2019-04-11T04:56:22.778Z,14.87
2019-04-11T04:58:48.423Z,16.40
2019-04-11T05:01:17.562Z,14.68
2019-04-11T05:03:48.628Z,15.05
2019-04-11T05:06:18.587Z,15.03
2019-04-11T05:08:47.518Z,15.32
2019-04-11T05:11:15.987Z,15.88
2019-04-11T05:13:48.171Z,15.83
2019-04-11T05:16:17.663Z,15.48
2019-04-11T05:18:44.749Z,17.57
2019-04-11T05:21:13.598Z,16.97
2019-04-11T05:23:42.053Z,13.80
2019-04-11T05:26:10.929Z,15.10
2019-04-11T05:28:39.533Z,15.20
2019-04-11T05:31:08.090Z,16.95
2019-04-11T05:33:37.099Z,16.07
2019-04-11T05:36:06.006Z,15.75
2019-04-11T05:38:35.883Z,14.80
2019-04-11T05:41:09.478Z,14.98
2019-04-11T05:43:37.386Z,15.00
2019-04-11T05:46:22.883Z,15.65
2019-04-11T05:48:41.125Z,15.05
2019-04-11T05:51:09.624Z,15.43
2019-04-11T05:53:38.764Z,14.18
2019-04-11T05:56:09.157Z,15.32
2019-04-11T05:58:42.219Z,16.05
2019-04-11T06:01:29.227Z,15.23
2019-04-11T06:04:00.494Z,15.45
2019-04-11T06:06:40.342Z,15.00
2019-04-11T06:09:13.375Z,15.00
2019-04-11T06:11:54.562Z,15.78
2019-04-11T06:14:27.138Z,14.85
2019-04-11T06:16:57.553Z,15.48
2019-04-11T06:19:37.760Z,13.60
2019-04-11T06:22:08.694Z,16.60
2019-04-11T06:24:50.588Z,15.43
2019-04-11T06:27:36.459Z,15.45
2019-04-11T06:30:15.935Z,14.25
2019-04-11T06:33:02.585Z,15.93
2019-04-11T06:35:50.357Z,15.28
2019-04-11T06:38:35.764Z,15.85
2019-04-11T06:41:18.744Z,15.50
2019-04-11T06:43:52.136Z,16.70
2019-04-11T06:46:22.359Z,16.50
2019-04-11T06:48:52.430Z,15.03
2019-04-11T06:51:22.490Z,16.40
2019-04-11T06:54:12.738Z,16.27
2019-04-11T06:56:43.416Z,15.58
2019-04-11T06:59:14.390Z,16.02
2019-04-11T07:01:45.367Z,15.28
2019-04-11T07:04:21.863Z,18.45
2019-04-11T07:06:52.242Z,15.25
2019-04-11T07:09:39.438Z,15.50
2019-04-11T07:12:09.826Z,16.67
2019-04-11T07:14:52.940Z,15.13
2019-04-11T07:17:40.335Z,16.20
2019-04-11T07:20:13.822Z,15.23
2019-04-11T07:23:00.066Z,16.62
2019-04-11T07:25:31.077Z,15.93
2019-04-11T07:28:01.518Z,17.70
2019-04-11T07:30:47.672Z,15.93
2019-04-11T07:33:26.997Z,18.27
2019-04-11T07:36:14.545Z,17.27
2019-04-11T07:38:56.733Z,16.85
2019-04-11T07:41:39.408Z,17.37
2019-04-11T07:44:19.718Z,16.77
2019-04-11T07:46:50.098Z,18.55
2019-04-11T07:49:35.084Z,17.50
2019-04-11T07:52:06.776Z,14.70
2019-04-11T07:54:36.975Z,16.80
2019-04-11T07:57:10.661Z,16.02
2019-04-11T07:59:46.803Z,17.50
2019-04-11T08:02:24.334Z,17.10
2019-04-11T08:05:04.486Z,16.05
2019-04-11T08:07:51.492Z,16.77
2019-04-11T08:10:27.754Z,15.85
2019-04-11T08:12:58.284Z,18.82
2019-04-11T08:15:44.729Z,17.95
2019-04-11T08:18:18.518Z,17.80
2019-04-11T08:20:51.839Z,18.50
2019-04-11T08:23:22.135Z,17.12
2019-04-11T08:25:58.277Z,17.48
2019-04-11T08:28:27.025Z,16.27
2019-04-11T08:31:13.792Z,18.65
2019-04-11T08:33:42.578Z,18.40
2019-04-11T08:36:16.050Z,19.05
2019-04-11T08:38:47.250Z,17.67
2019-04-11T08:41:17.652Z,19.17
2019-04-11T08:43:49.287Z,17.12
2019-04-11T08:49:29.935Z,18.10
2019-04-11T08:52:00.474Z,17.67
2019-04-11T08:54:48.433Z,17.12
2019-04-11T08:57:18.497Z,19.07
2019-04-11T09:00:02.057Z,18.75
2019-04-11T09:02:33.260Z,17.50
2019-04-11T09:05:18.232Z,18.40
2019-04-11T09:07:56.189Z,19.20
2019-04-11T09:10:42.361Z,17.57
2019-04-11T09:13:15.537Z,17.73
2019-04-11T09:16:04.078Z,19.95
2019-04-11T09:18:34.436Z,18.77
2019-04-11T09:21:04.992Z,20.77
2019-04-11T09:23:37.647Z,18.85
2019-04-11T09:26:17.973Z,19.60
2019-04-11T09:28:47.530Z,19.98
2019-04-11T09:31:35.797Z,18.50
2019-04-11T09:34:13.231Z,20.72
2019-04-11T09:36:43.723Z,19.32
2019-04-11T09:39:21.208Z,20.97
2019-04-11T09:41:57.203Z,20.62
2019-04-11T09:44:43.205Z,20.82
2019-04-11T09:47:13.691Z,19.67
2019-04-11T09:50:00.134Z,21.82
2019-04-11T09:52:31.073Z,19.12
2019-04-11T09:55:17.067Z,20.77
2019-04-11T09:57:48.253Z,21.12
2019-04-11T10:00:22.504Z,20.65
2019-04-11T10:02:53.013Z,20.00
2019-04-11T10:05:24.320Z,16.48
2019-04-11T10:08:11.026Z,19.57
2019-04-11T10:10:47.077Z,20.40
2019-04-11T10:13:18.481Z,19.17
2019-04-11T10:15:51.662Z,20.32
2019-04-11T10:18:32.205Z,21.65
2019-04-11T10:20:59.217Z,20.60
2019-04-11T10:23:32.666Z,20.05
2019-04-11T10:26:03.491Z,20.85
2019-04-11T10:28:51.456Z,21.48
2019-04-11T10:31:20.452Z,18.95
2019-04-11T10:33:50.768Z,19.55
2019-04-11T10:36:33.418Z,21.65
2019-04-11T10:39:21.747Z,20.65
2019-04-11T10:41:51.805Z,21.82
2019-04-11T10:44:21.862Z,19.10
2019-04-11T10:47:01.883Z,21.00
2019-04-11T10:49:38.657Z,20.25
2019-04-11T10:52:09.834Z,20.95
2019-04-11T10:54:40.736Z,23.40
2019-04-11T10:57:11.916Z,21.85
2019-04-11T10:59:44.972Z,20.37
2019-04-11T11:02:21.144Z,22.80
2019-04-11T11:04:51.245Z,22.77
2019-04-11T11:07:20.333Z,21.70
2019-04-11T11:09:56.709Z,21.80
2019-04-11T11:12:41.845Z,21.80
2019-04-11T11:15:13.463Z,21.60
2019-04-11T11:18:32.018Z,21.20
2019-04-11T11:20:45.493Z,20.43
2019-04-11T11:23:26.878Z,21.68
2019-04-11T11:26:09.116Z,21.75
2019-04-11T11:28:39.160Z,19.48
2019-04-11T11:31:11.978Z,22.65
2019-04-11T11:33:42.689Z,22.70
2019-04-11T11:36:15.302Z,22.25
2019-04-11T11:38:52.255Z,23.00
2019-04-11T11:41:38.598Z,22.00
2019-04-11T11:44:09.750Z,21.02
2019-04-11T11:46:42.712Z,20.95
2019-04-11T11:49:12.184Z,18.62
2019-04-11T11:51:45.745Z,21.55
2019-04-11T11:54:15.877Z,21.82
2019-04-11T11:56:47.277Z,22.35
2019-04-11T11:59:23.327Z,23.67
2019-04-11T12:01:54.297Z,22.77
2019-04-11T12:04:42.745Z,20.88
2019-04-11T12:07:12.898Z,22.02
2019-04-11T12:09:59.261Z,22.77
2019-04-11T12:12:38.229Z,23.05
2019-04-11T12:15:17.726Z,21.55
2019-04-11T12:17:59.605Z,23.15
2019-04-11T12:20:39.470Z,22.73
2019-04-11T12:23:10.834Z,24.55
2019-04-11T12:25:41.134Z,23.27
2019-04-11T12:28:13.707Z,22.85
2019-04-11T12:30:46.037Z,25.10
2019-04-11T12:33:21.785Z,25.00
2019-04-11T12:35:55.622Z,24.77
2019-04-11T12:38:28.840Z,26.25
2019-04-11T12:41:15.422Z,25.37
2019-04-11T12:44:01.829Z,24.90
2019-04-11T12:46:48.428Z,23.20
2019-04-11T12:49:27.813Z,24.95
2019-04-11T12:52:12.969Z,26.10
2019-04-11T12:54:43.099Z,24.63
2019-04-11T12:57:29.661Z,24.95
2019-04-11T13:00:08.216Z,27.07
2019-04-11T13:02:38.343Z,26.30
2019-04-11T13:05:09.040Z,26.27
2019-04-11T13:07:48.266Z,24.65
2019-04-11T13:10:16.893Z,26.20
2019-04-11T13:13:01.822Z,24.32
2019-04-11T13:15:31.883Z,25.50
2019-04-11T13:18:01.950Z,28.30
2019-04-11T13:20:38.102Z,27.33
2019-04-11T13:26:08.126Z,26.15
2019-04-11T13:28:36.577Z,26.12
2019-04-11T13:31:23.246Z,29.05
2019-04-11T13:33:53.306Z,26.90
2019-04-11T13:36:39.706Z,25.70
2019-04-11T13:39:08.240Z,27.82
2019-04-11T13:41:41.062Z,25.32
2019-04-11T13:44:11.438Z,26.37
2019-04-11T13:46:59.821Z,29.00
2019-04-11T13:49:46.075Z,27.67
2019-04-11T13:52:16.389Z,26.03
2019-04-11T13:55:02.715Z,26.50
2019-04-11T13:57:32.877Z,31.47
2019-04-11T14:00:21.712Z,28.90
2019-04-11T14:02:54.525Z,29.85
2019-04-11T14:05:22.966Z,27.80
2019-04-11T14:07:52.845Z,29.30
2019-04-11T14:10:22.616Z,26.52
2019-04-11T14:12:52.670Z,25.65
2019-04-11T14:15:21.575Z,26.05
2019-04-11T14:18:06.973Z,28.73
2019-04-11T14:20:37.093Z,29.60
2019-04-11T14:23:15.713Z,28.80
2019-04-11T14:25:53.063Z,26.90
2019-04-11T14:28:26.078Z,29.70
2019-04-11T14:31:08.442Z,28.53
2019-04-11T14:33:38.514Z,31.47
2019-04-11T14:36:33.745Z,29.40
2019-04-11T14:39:03.101Z,29.17
2019-04-11T14:41:33.285Z,29.10
2019-04-11T14:44:03.363Z,32.40
2019-04-11T14:46:42.043Z,30.73
2019-04-11T14:49:11.222Z,30.17
2019-04-11T14:51:41.304Z,27.47
2019-04-11T14:54:17.601Z,29.37
2019-04-11T14:56:52.179Z,32.47
2019-04-11T14:59:30.898Z,30.00
2019-04-11T15:02:18.891Z,31.93
2019-04-11T15:05:06.162Z,31.17
2019-04-11T15:07:36.046Z,29.93
2019-04-11T15:10:18.974Z,30.47
2019-04-11T15:12:48.738Z,29.53
2019-04-11T15:15:24.485Z,29.30
2019-04-11T15:17:55.910Z,31.50
2019-04-11T15:20:26.636Z,33.23
2019-04-11T15:22:56.768Z,29.47
2019-04-11T15:25:26.850Z,32.70
2019-04-11T15:28:02.906Z,29.90
2019-04-11T15:30:32.987Z,31.87
2019-04-11T15:33:19.572Z,30.80
2019-04-11T15:35:49.942Z,33.17
2019-04-11T15:38:37.805Z,30.87
2019-04-11T15:41:08.127Z,29.80
2019-04-11T15:43:49.854Z,30.47
2019-04-11T15:46:23.127Z,30.50
2019-04-11T15:49:02.121Z,31.25
2019-04-11T15:51:37.377Z,28.47
2019-04-11T15:54:16.676Z,29.43
2019-04-11T15:56:46.873Z,30.53
2019-04-11T15:59:32.912Z,28.17
2019-04-11T16:02:05.728Z,29.03
2019-04-11T16:04:35.887Z,30.23
2019-04-11T16:07:12.166Z,28.47
2019-04-11T16:09:43.326Z,27.45
2019-04-11T16:12:19.486Z,27.07
2019-04-11T16:14:49.840Z,27.82
2019-04-11T16:17:22.654Z,27.90
2019-04-11T16:19:52.933Z,27.87
2019-04-11T16:22:39.507Z,27.00
2019-04-11T16:25:12.400Z,30.60
2019-04-11T16:27:42.468Z,26.80
2019-04-11T16:30:12.890Z,26.65
2019-04-11T16:32:42.963Z,28.75
2019-04-11T16:35:19.014Z,27.07
2019-04-11T16:37:49.087Z,29.67
2019-04-11T16:40:20.907Z,28.42
2019-04-11T16:42:49.383Z,29.75
2019-04-11T16:45:36.014Z,29.90
2019-04-11T16:48:04.539Z,30.17
2019-04-11T16:50:33.077Z,27.23
2019-04-11T16:53:01.579Z,25.92
2019-04-11T16:55:29.984Z,27.62
2019-04-11T16:57:58.485Z,25.50
2019-04-11T17:00:26.964Z,27.67
2019-04-11T17:02:55.663Z,27.00
2019-04-11T17:05:26.761Z,25.60
2019-04-11T17:07:56.797Z,27.10
2019-04-11T17:10:43.067Z,24.37
2019-04-11T17:13:11.492Z,27.52
2019-04-11T17:15:40.242Z,26.77
2019-04-11T17:18:08.732Z,25.90
2019-04-11T17:20:39.694Z,26.57
2019-04-11T17:23:07.564Z,27.98
2019-04-11T17:25:36.060Z,27.45
2019-04-11T17:28:04.557Z,28.02
2019-04-11T17:30:32.978Z,27.02
2019-04-11T17:33:01.434Z,27.35
2019-04-11T17:35:31.716Z,30.32
2019-04-11T17:38:01.074Z,29.72
2019-04-11T17:40:30.478Z,30.52
2019-04-11T17:42:58.918Z,26.62
2019-04-11T17:45:27.330Z,28.05
2019-04-11T17:47:57.299Z,28.25
2019-04-11T17:50:25.948Z,26.80
2019-04-11T17:52:54.886Z,28.02
2019-04-11T17:58:11.265Z,26.48
2019-04-11T18:00:44.355Z,28.35
2019-04-11T18:03:12.787Z,25.97
2019-04-11T18:05:41.671Z,25.77
2019-04-11T18:08:10.144Z,27.15
2019-04-11T18:10:38.616Z,26.70
2019-04-11T18:13:07.214Z,26.73
2019-04-11T18:15:35.690Z,28.83
2019-04-11T18:18:05.520Z,24.15
2019-04-11T18:20:36.783Z,26.27
2019-04-11T18:23:05.004Z,28.25
2019-04-11T18:25:33.980Z,25.40
2019-04-11T18:28:02.442Z,27.60
2019-04-11T18:30:30.857Z,28.25
2019-04-11T18:32:59.512Z,30.45
2019-04-11T18:35:31.761Z,30.82
2019-04-11T18:38:01.779Z,29.75
2019-04-11T18:40:29.833Z,27.70
2019-04-11T18:42:58.267Z,27.22
2019-04-11T18:45:29.678Z,28.75
2019-04-11T18:48:00.772Z,29.60
2019-04-11T18:50:29.561Z,31.15
2019-04-11T18:52:59.598Z,26.37
2019-04-11T18:55:28.242Z,28.00
2019-04-11T18:57:56.651Z,24.90
2019-04-11T19:00:25.564Z,26.75
2019-04-11T19:02:54.152Z,26.68
2019-04-11T19:05:28.505Z,28.05
2019-04-11T19:07:52.994Z,29.10
2019-04-11T19:10:28.436Z,26.25
2019-04-11T19:12:56.854Z,27.52
2019-04-11T19:15:25.281Z,27.67
2019-04-11T19:18:05.725Z,26.87
2019-04-11T19:20:23.872Z,27.95
2019-04-11T19:22:52.296Z,26.48
2019-04-11T19:25:20.708Z,26.90
2019-04-11T19:27:52.193Z,27.30
2019-04-11T19:30:19.626Z,26.05
2019-04-11T19:32:48.046Z,25.88
2019-04-11T19:35:16.474Z,25.75
2019-04-11T19:37:45.161Z,23.40
2019-04-11T19:40:16.309Z,23.15
2019-04-11T19:42:44.195Z,23.10
2019-04-11T19:45:12.860Z,25.88
2019-04-11T19:47:41.854Z,26.90
2019-04-11T19:50:10.427Z,25.17
2019-04-11T19:52:45.262Z,26.70
2019-04-11T19:55:10.967Z,23.90
2019-04-11T19:57:39.778Z,24.82
2019-04-11T20:00:10.201Z,24.35
2019-04-11T20:02:38.645Z,22.87
2019-04-11T20:05:07.138Z,23.75
2019-04-11T20:07:36.489Z,24.00
2019-04-11T20:10:06.554Z,22.15
2019-04-11T20:12:34.952Z,21.65
2019-04-11T20:15:05.219Z,22.32
2019-04-11T20:17:43.771Z,22.05
2019-04-11T20:20:07.173Z,22.40
2019-04-11T20:22:39.289Z,22.37
2019-04-11T20:25:16.330Z,22.15
2019-04-11T20:27:45.311Z,21.40
2019-04-11T20:30:13.790Z,22.32
2019-04-11T20:32:42.210Z,22.05
2019-04-11T20:35:10.702Z,23.10
2019-04-11T20:37:42.206Z,23.27
2019-04-11T20:40:10.005Z,22.10
2019-04-11T20:42:38.437Z,21.00
2019-04-11T20:45:07.294Z,24.20
2019-04-11T20:47:35.757Z,22.30
2019-04-11T20:50:07.570Z,20.77
2019-04-11T20:52:35.330Z,21.75
2019-04-11T20:55:08.988Z,22.67
2019-04-11T20:57:34.935Z,21.85
2019-04-11T21:00:04.355Z,20.10
2019-04-11T21:02:32.882Z,21.93
2019-04-11T21:05:01.985Z,22.05
2019-04-11T21:07:31.949Z,19.87
2019-04-11T21:10:03.599Z,22.67
2019-04-11T21:12:30.929Z,19.50
2019-04-11T21:14:59.611Z,21.73
2019-04-11T21:17:28.052Z,20.23
2019-04-11T21:19:56.454Z,21.48
2019-04-11T21:22:24.901Z,21.70
2019-04-11T21:24:53.323Z,21.02
2019-04-11T21:27:21.833Z,19.40
2019-04-11T21:29:50.270Z,19.32
2019-04-11T21:32:18.690Z,19.77
2019-04-11T21:34:47.136Z,20.10
2019-04-11T21:37:15.543Z,20.62
2019-04-11T21:39:43.958Z,18.98
2019-04-11T21:42:12.390Z,19.90
2019-04-11T21:44:40.802Z,19.87
2019-04-11T21:47:09.216Z,18.62
2019-04-11T21:49:37.778Z,21.33
2019-04-11T21:52:06.360Z,19.35
2019-04-11T21:54:34.882Z,17.95
2019-04-11T21:57:03.372Z,18.98
2019-04-11T21:59:31.781Z,19.50
2019-04-11T22:02:00.341Z,22.15
2019-04-11T22:04:31.110Z,19.62
2019-04-11T22:07:00.892Z,18.48
2019-04-11T22:09:29.147Z,19.10
2019-04-11T22:11:57.555Z,19.15
2019-04-11T22:14:26.115Z,19.07
2019-04-11T22:16:55.030Z,20.17
2019-04-11T22:19:23.719Z,18.57
2019-04-11T22:21:52.278Z,20.00
2019-04-11T22:24:20.694Z,19.70
2019-04-11T22:26:50.610Z,19.55
2019-04-11T22:29:19.680Z,19.57
2019-04-11T22:31:48.115Z,20.12
2019-04-11T22:34:18.752Z,21.33
2019-04-11T22:36:47.235Z,20.92
2019-04-11T22:39:15.683Z,18.17
2019-04-11T22:41:44.103Z,19.73
2019-04-11T22:44:12.876Z,18.48
2019-04-11T22:46:41.282Z,19.52
2019-04-11T22:49:09.750Z,18.65
2019-04-11T22:51:42.682Z,19.40
2019-04-11T22:54:08.351Z,18.92
2019-04-11T22:56:36.749Z,18.73
2019-04-11T22:59:05.175Z,18.80
2019-04-11T23:01:34.021Z,18.48
2019-04-11T23:04:02.514Z,18.98
2019-04-11T23:06:30.924Z,19.25
2019-04-11T23:08:59.427Z,18.82
2019-04-11T23:11:27.923Z,17.82
2019-04-11T23:13:56.342Z,19.10
2019-04-11T23:16:24.770Z,18.67
2019-04-11T23:18:53.265Z,17.82
2019-04-11T23:21:21.674Z,18.00
2019-04-11T23:23:50.225Z,17.62
2019-04-11T23:26:18.631Z,17.52
2019-04-11T23:28:47.101Z,18.35
2019-04-11T23:31:19.966Z,19.45
2019-04-11T23:33:46.529Z,19.35
2019-04-11T23:36:15.010Z,17.70
2019-04-11T23:38:43.405Z,17.02
2019-04-11T23:41:11.832Z,16.57
2019-04-11T23:43:40.236Z,16.30
2019-04-11T23:46:08.716Z,17.80
2019-04-11T23:48:37.205Z,17.52
2019-04-11T23:51:05.629Z,17.73
2019-04-11T23:53:34.057Z,15.35
2019-04-11T23:56:02.770Z,17.07
2019-04-11T23:58:32.058Z,17.05
